createdAt,value
2023-03-13T00:00:12.420Z,3.92
2023-03-13T00:02:58.098Z,3.89
2023-03-13T00:05:43.987Z,3.80
2023-03-13T00:08:30.036Z,3.73
2023-03-13T00:11:16.719Z,3.73
2023-03-13T00:14:05.126Z,3.69
2023-03-13T00:16:50.977Z,3.65
2023-03-13T00:19:36.748Z,3.66
2023-03-13T00:22:22.585Z,3.58
2023-03-13T00:25:08.842Z,3.57
2023-03-13T00:27:54.408Z,3.48
2023-03-13T00:30:40.347Z,3.43
2023-03-13T00:33:26.055Z,3.39
2023-03-13T00:36:23.389Z,3.35
2023-03-13T00:39:09.769Z,3.30
2023-03-13T00:41:55.780Z,3.24
2023-03-13T00:44:41.532Z,3.11
2023-03-13T00:47:28.605Z,3.04
2023-03-13T00:50:14.699Z,2.92
2023-03-13T00:53:00.749Z,2.87
2023-03-13T00:55:56.915Z,2.79
2023-03-13T00:58:44.556Z,2.75
2023-03-13T01:01:35.960Z,2.68
2023-03-13T01:04:21.949Z,2.70
2023-03-13T01:07:09.289Z,2.67
2023-03-13T01:09:55.107Z,2.63
2023-03-13T01:12:42.322Z,2.59
2023-03-13T01:15:28.079Z,2.52
2023-03-13T01:18:15.522Z,2.49
2023-03-13T01:21:02.198Z,2.46
2023-03-13T01:23:48.679Z,2.45
2023-03-13T01:26:35.620Z,2.42
2023-03-13T01:29:21.455Z,2.36
2023-03-13T01:32:09.271Z,2.32
2023-03-13T01:34:54.985Z,2.27
2023-03-13T01:37:40.635Z,2.25
2023-03-13T01:40:27.285Z,2.21
2023-03-13T01:43:30.472Z,2.17
2023-03-13T01:46:25.065Z,2.14
2023-03-13T01:49:18.888Z,2.10
2023-03-13T01:52:26.327Z,1.97
2023-03-13T01:55:35.257Z,1.90
2023-03-13T01:58:21.867Z,1.81
2023-03-13T02:01:08.189Z,1.77
2023-03-13T02:03:58.282Z,1.71
2023-03-13T02:06:47.241Z,1.72
2023-03-13T02:09:36.028Z,1.60
2023-03-13T02:12:32.776Z,1.56
2023-03-13T02:15:21.897Z,1.52
2023-03-13T02:18:07.973Z,1.46
2023-03-13T02:20:58.497Z,1.48
2023-03-13T02:23:58.906Z,1.37
2023-03-13T02:26:44.678Z,1.46
2023-03-13T02:29:30.940Z,1.45
2023-03-13T02:32:17.349Z,1.44
2023-03-13T02:35:08.311Z,1.44
2023-03-13T02:37:57.296Z,1.43
2023-03-13T02:40:45.879Z,1.40
2023-03-13T02:43:34.280Z,1.37
2023-03-13T02:46:21.803Z,1.34
2023-03-13T02:49:24.524Z,1.28
2023-03-13T02:52:26.860Z,1.30
2023-03-13T02:55:18.200Z,1.26
2023-03-13T02:58:05.617Z,1.25
2023-03-13T03:00:54.717Z,1.27
2023-03-13T03:03:41.063Z,1.26
2023-03-13T03:06:26.873Z,1.23
2023-03-13T03:09:13.538Z,1.21
2023-03-13T03:11:59.416Z,1.20
2023-03-13T03:14:48.112Z,1.23
2023-03-13T03:17:35.005Z,1.26
2023-03-13T03:20:20.793Z,1.29
2023-03-13T03:23:06.493Z,1.28
2023-03-13T03:25:52.167Z,1.29
2023-03-13T03:28:37.746Z,1.27
2023-03-13T03:31:28.187Z,1.29
2023-03-13T03:34:15.957Z,1.17
2023-03-13T03:37:01.588Z,1.20
2023-03-13T03:39:48.438Z,1.20
2023-03-13T03:42:34.523Z,1.19
2023-03-13T03:45:21.040Z,1.16
2023-03-13T03:48:07.345Z,1.18
2023-03-13T03:50:53.300Z,1.18
2023-03-13T03:53:40.448Z,1.20
2023-03-13T03:56:26.892Z,1.20
2023-03-13T03:59:15.805Z,1.21
2023-03-13T04:02:07.146Z,1.22
2023-03-13T04:04:54.737Z,1.20
2023-03-13T04:07:45.346Z,1.20
2023-03-13T04:10:31.256Z,1.23
2023-03-13T04:13:17.334Z,1.23
2023-03-13T04:16:08.511Z,1.22
2023-03-13T04:18:55.315Z,1.25
2023-03-13T04:21:44.131Z,1.21
2023-03-13T04:24:33.954Z,1.21
2023-03-13T04:27:19.752Z,1.20
2023-03-13T04:30:07.466Z,1.18
2023-03-13T04:33:26.988Z,1.13
2023-03-13T04:36:28.546Z,1.13
2023-03-13T04:39:37.348Z,1.13
2023-03-13T04:42:46.958Z,1.16
2023-03-13T04:45:56.043Z,1.13
2023-03-13T04:48:54.998Z,1.12
2023-03-13T04:52:00.744Z,1.11
2023-03-13T04:55:12.609Z,1.08
2023-03-13T04:58:27.464Z,1.09
2023-03-13T05:01:28.942Z,1.11
2023-03-13T05:04:28.026Z,1.01
2023-03-13T05:07:31.299Z,1.04
2023-03-13T05:10:20.053Z,1.02
2023-03-13T05:13:23.819Z,1.02
2023-03-13T05:16:09.719Z,1.01
2023-03-13T05:19:33.942Z,0.95
2023-03-13T05:22:38.677Z,0.95
2023-03-13T05:25:39.010Z,0.93
2023-03-13T05:28:36.524Z,0.88
2023-03-13T05:31:34.294Z,0.81
2023-03-13T05:34:49.782Z,0.89
2023-03-13T05:38:01.833Z,0.89
2023-03-13T05:41:07.490Z,0.96
2023-03-13T05:44:16.560Z,0.97
2023-03-13T05:47:20.782Z,1.01
2023-03-13T05:50:27.864Z,1.09
2023-03-13T05:53:37.011Z,1.08
2023-03-13T05:56:30.183Z,1.13
2023-03-13T05:59:39.061Z,1.19
2023-03-13T06:02:44.055Z,1.23
2023-03-13T06:05:34.977Z,1.24
2023-03-13T06:08:24.445Z,1.28
2023-03-13T06:11:11.290Z,1.28
2023-03-13T06:13:57.544Z,1.32
2023-03-13T06:17:12.703Z,1.40
2023-03-13T06:19:58.677Z,1.50
2023-03-13T06:22:44.545Z,1.56
2023-03-13T06:25:30.345Z,1.65
2023-03-13T06:28:16.608Z,1.76
2023-03-13T06:31:06.693Z,1.83
2023-03-13T06:33:56.178Z,1.89
2023-03-13T06:36:41.843Z,1.99
2023-03-13T06:39:27.661Z,2.02
2023-03-13T06:42:13.914Z,2.12
2023-03-13T06:44:59.809Z,2.21
2023-03-13T06:47:45.672Z,2.24
2023-03-13T06:50:31.731Z,2.32
2023-03-13T06:53:19.598Z,2.41
2023-03-13T06:56:05.932Z,2.40
2023-03-13T06:58:51.657Z,2.51
2023-03-13T07:01:37.320Z,2.55
2023-03-13T07:04:23.175Z,2.57
2023-03-13T07:07:15.007Z,2.61
2023-03-13T07:10:10.550Z,2.65
2023-03-13T07:12:56.390Z,2.71
2023-03-13T07:15:42.201Z,2.75
2023-03-13T07:18:28.047Z,2.82
2023-03-13T07:21:14.187Z,2.89
2023-03-13T07:24:00.030Z,2.93
2023-03-13T07:27:01.560Z,3.03
2023-03-13T07:29:51.594Z,3.07
2023-03-13T07:32:38.096Z,3.18
2023-03-13T07:35:23.864Z,3.21
2023-03-13T07:38:09.558Z,3.26
2023-03-13T07:40:57.272Z,3.31
2023-03-13T07:43:43.177Z,3.36
2023-03-13T07:46:29.058Z,3.41
2023-03-13T07:49:14.964Z,3.44
2023-03-13T07:52:00.605Z,3.48
2023-03-13T07:54:46.271Z,3.52
2023-03-13T07:57:32.450Z,3.54
2023-03-13T08:00:18.725Z,3.63
2023-03-13T08:03:07.395Z,3.63
2023-03-13T08:06:10.976Z,3.70
2023-03-13T08:08:57.994Z,3.74
2023-03-13T08:11:46.973Z,3.80
2023-03-13T08:14:33.012Z,3.94
2023-03-13T08:17:18.833Z,4.07
2023-03-13T08:20:07.316Z,4.19
2023-03-13T08:22:55.674Z,4.32
2023-03-13T08:25:41.302Z,4.48
2023-03-13T08:28:27.179Z,4.61
2023-03-13T08:31:15.947Z,4.72
2023-03-13T08:34:02.046Z,4.87
2023-03-13T08:36:48.952Z,5.00
2023-03-13T08:39:34.691Z,5.21
2023-03-13T08:42:23.431Z,5.33
2023-03-13T08:45:10.063Z,5.48
2023-03-13T08:47:55.869Z,5.59
2023-03-13T08:50:41.427Z,5.67
2023-03-13T08:53:27.318Z,5.80
2023-03-13T08:56:18.945Z,5.92
2023-03-13T08:59:06.392Z,6.03
2023-03-13T09:01:52.301Z,6.15
2023-03-13T09:04:38.190Z,6.22
2023-03-13T09:07:24.453Z,6.35
2023-03-13T09:10:10.966Z,6.50
2023-03-13T09:12:56.489Z,6.64
2023-03-13T09:15:42.314Z,6.77
2023-03-13T09:18:29.077Z,6.94
2023-03-13T09:21:24.712Z,7.19
2023-03-13T09:24:10.238Z,7.34
2023-03-13T09:27:01.227Z,7.57
2023-03-13T09:29:47.769Z,7.75
2023-03-13T09:32:35.671Z,7.86
2023-03-13T09:35:21.379Z,7.90
2023-03-13T09:38:07.578Z,8.04
2023-03-13T09:41:05.666Z,8.14
2023-03-13T09:44:15.016Z,8.27
2023-03-13T09:47:21.193Z,8.19
2023-03-13T09:50:23.273Z,8.30
2023-03-13T09:53:23.402Z,8.37
2023-03-13T09:56:15.296Z,8.46
2023-03-13T09:59:18.148Z,8.59
2023-03-13T10:02:05.759Z,8.71
2023-03-13T10:05:21.410Z,8.77
2023-03-13T10:08:20.390Z,8.87
2023-03-13T10:11:28.479Z,8.97
2023-03-13T10:14:59.229Z,9.03
2023-03-13T10:17:45.386Z,9.09
2023-03-13T10:20:37.941Z,9.16
2023-03-13T10:23:47.618Z,9.31
2023-03-13T10:26:36.487Z,9.46
2023-03-13T10:29:22.685Z,9.60
2023-03-13T10:32:11.306Z,9.75
2023-03-13T10:35:01.601Z,10.02
2023-03-13T10:37:48.508Z,10.16
2023-03-13T10:40:34.630Z,10.35
2023-03-13T10:43:22.580Z,10.55
2023-03-13T10:46:08.959Z,10.72
2023-03-13T10:48:56.640Z,10.94
2023-03-13T10:51:48.593Z,11.09
2023-03-13T10:54:37.356Z,11.25
2023-03-13T10:57:26.315Z,11.41
2023-03-13T11:00:44.095Z,11.55
2023-03-13T11:03:34.941Z,11.74
2023-03-13T11:06:25.313Z,11.90
2023-03-13T11:09:12.897Z,12.14
2023-03-13T11:12:24.078Z,12.33
2023-03-13T11:15:16.392Z,12.58
2023-03-13T11:18:23.293Z,12.87
2023-03-13T11:21:19.982Z,13.09
2023-03-13T11:24:50.814Z,13.44
2023-03-13T11:27:45.940Z,13.82
2023-03-13T11:31:10.418Z,14.19
2023-03-13T11:34:03.622Z,14.58
2023-03-13T11:37:16.920Z,15.13
2023-03-13T11:40:27.857Z,15.71
2023-03-13T11:43:33.132Z,16.02
2023-03-13T11:46:46.802Z,16.35
2023-03-13T11:49:57.224Z,16.67
2023-03-13T11:53:10.172Z,17.04
2023-03-13T11:56:16.922Z,17.65
2023-03-13T11:59:20.512Z,17.96
2023-03-13T12:02:12.283Z,18.16
2023-03-13T12:05:02.213Z,18.62
2023-03-13T12:07:50.469Z,18.83
2023-03-13T12:10:41.649Z,19.03
2023-03-13T12:13:35.208Z,19.17
2023-03-13T12:16:24.229Z,19.31
2023-03-13T12:19:13.157Z,19.27
2023-03-13T12:22:18.089Z,19.23
2023-03-13T12:25:14.648Z,19.25
2023-03-13T12:28:26.134Z,19.31
2023-03-13T12:31:20.141Z,19.38
2023-03-13T12:34:20.639Z,19.48
2023-03-13T12:37:44.595Z,19.48
2023-03-13T12:40:30.361Z,19.50
2023-03-13T12:43:32.844Z,19.65
2023-03-13T12:46:31.066Z,19.76
2023-03-13T12:49:29.518Z,19.86
2023-03-13T12:52:22.118Z,19.96
2023-03-13T12:55:08.851Z,19.98
2023-03-13T12:58:10.784Z,19.92
2023-03-13T13:00:57.747Z,19.93
2023-03-13T13:04:00.838Z,20.15
2023-03-13T13:07:02.591Z,20.29
2023-03-13T13:10:28.888Z,20.49
2023-03-13T13:13:14.859Z,20.64
2023-03-13T13:16:38.408Z,20.88
2023-03-13T13:19:24.448Z,21.13
2023-03-13T13:22:52.829Z,21.36
2023-03-13T13:25:39.493Z,21.55
2023-03-13T13:28:34.766Z,21.75
2023-03-13T13:31:45.819Z,22.01
2023-03-13T13:34:32.083Z,22.20
2023-03-13T13:37:21.239Z,22.41
2023-03-13T13:40:16.211Z,22.65
2023-03-13T13:43:03.725Z,22.73
2023-03-13T13:46:10.881Z,22.89
2023-03-13T13:49:07.724Z,22.96
2023-03-13T13:52:02.590Z,23.02
2023-03-13T13:54:57.656Z,22.93
2023-03-13T13:57:44.205Z,22.88
2023-03-13T14:00:39.307Z,22.85
2023-03-13T14:03:30.885Z,22.78
2023-03-13T14:06:35.233Z,22.79
2023-03-13T14:09:41.120Z,22.81
2023-03-13T14:12:29.312Z,22.76
2023-03-13T14:15:16.619Z,22.76
2023-03-13T14:18:21.739Z,22.79
2023-03-13T14:21:14.349Z,22.74
2023-03-13T14:24:14.011Z,23.02
2023-03-13T14:27:00.120Z,23.07
2023-03-13T14:30:07.224Z,23.28
2023-03-13T14:32:54.230Z,23.32
2023-03-13T14:35:41.352Z,23.36
2023-03-13T14:38:30.269Z,23.38
2023-03-13T14:41:33.312Z,23.34
2023-03-13T14:44:28.275Z,22.96
2023-03-13T14:47:16.950Z,22.26
2023-03-13T14:50:12.932Z,21.50
2023-03-13T14:53:05.305Z,20.63
2023-03-13T14:56:19.296Z,19.83
2023-03-13T14:59:15.669Z,19.14
2023-03-13T15:02:02.449Z,18.52
2023-03-13T15:05:02.184Z,18.02
2023-03-13T15:07:54.959Z,17.48
2023-03-13T15:10:41.690Z,17.13
2023-03-13T15:13:32.055Z,16.78
2023-03-13T15:16:21.652Z,16.46
2023-03-13T15:19:07.975Z,16.20
2023-03-13T15:21:54.838Z,15.96
2023-03-13T15:24:56.132Z,15.72
2023-03-13T15:27:51.030Z,15.50
2023-03-13T15:30:36.667Z,15.30
2023-03-13T15:33:23.882Z,15.06
2023-03-13T15:36:11.324Z,14.92
2023-03-13T15:38:57.405Z,14.73
2023-03-13T15:41:43.125Z,14.61
2023-03-13T15:45:13.179Z,14.42
2023-03-13T15:48:00.179Z,14.29
2023-03-13T15:51:24.919Z,14.15
2023-03-13T15:54:40.701Z,14.02
2023-03-13T15:57:27.206Z,13.93
2023-03-13T16:00:23.545Z,13.84
2023-03-13T16:03:20.994Z,13.76
2023-03-13T16:06:13.149Z,13.69
2023-03-13T16:09:02.358Z,13.60
2023-03-13T16:11:48.322Z,13.54
2023-03-13T16:14:34.717Z,13.44
2023-03-13T16:17:22.739Z,13.39
2023-03-13T16:20:18.038Z,13.33
2023-03-13T16:23:03.892Z,13.30
2023-03-13T16:25:49.804Z,13.23
2023-03-13T16:28:35.387Z,13.18
2023-03-13T16:31:27.427Z,13.12
2023-03-13T16:34:13.476Z,13.05
2023-03-13T16:36:59.258Z,12.99
2023-03-13T16:39:45.470Z,12.89
2023-03-13T16:42:35.086Z,12.85
2023-03-13T16:45:21.151Z,12.78
2023-03-13T16:48:16.872Z,12.68
2023-03-13T16:51:03.039Z,12.64
2023-03-13T16:53:51.605Z,12.59
2023-03-13T16:56:39.979Z,12.49
2023-03-13T16:59:26.830Z,12.45
2023-03-13T17:02:17.369Z,12.39
2023-03-13T17:05:05.645Z,12.33
2023-03-13T17:07:53.125Z,12.30
2023-03-13T17:10:38.855Z,12.27
2023-03-13T17:13:24.632Z,12.23
2023-03-13T17:16:33.695Z,12.17
2023-03-13T17:19:19.635Z,12.13
2023-03-13T17:22:05.919Z,12.07
2023-03-13T17:24:51.792Z,12.03
2023-03-13T17:27:39.126Z,11.97
2023-03-13T17:30:31.271Z,11.91
2023-03-13T17:33:16.982Z,11.91
2023-03-13T17:36:02.855Z,11.84
2023-03-13T17:39:00.972Z,11.80
2023-03-13T17:41:46.734Z,11.74
2023-03-13T17:44:33.477Z,11.66
2023-03-13T17:47:23.937Z,11.61
2023-03-13T17:50:22.824Z,11.52
2023-03-13T17:53:09.019Z,11.46
2023-03-13T17:55:54.949Z,11.41
2023-03-13T17:58:40.717Z,11.35
2023-03-13T18:01:29.955Z,11.28
2023-03-13T18:04:17.123Z,11.19
2023-03-13T18:07:04.041Z,11.08
2023-03-13T18:09:50.135Z,11.05
2023-03-13T18:12:36.220Z,10.97
2023-03-13T18:15:23.996Z,10.94
2023-03-13T18:18:16.061Z,10.92
2023-03-13T18:21:02.533Z,10.90
2023-03-13T18:23:48.456Z,10.82
2023-03-13T18:26:38.177Z,10.75
2023-03-13T18:29:29.211Z,10.71
2023-03-13T18:32:17.055Z,10.67
2023-03-13T18:35:03.010Z,10.63
2023-03-13T18:37:49.415Z,10.58
2023-03-13T18:40:35.594Z,10.50
2023-03-13T18:43:21.218Z,10.45
2023-03-13T18:46:11.882Z,10.37
2023-03-13T18:48:58.283Z,10.30
2023-03-13T18:51:45.321Z,10.17
2023-03-13T18:54:31.588Z,10.12
2023-03-13T18:57:19.798Z,10.05
2023-03-13T19:00:31.954Z,9.90
2023-03-13T19:03:20.552Z,9.83
2023-03-13T19:06:28.140Z,9.75
2023-03-13T19:09:41.062Z,9.75
2023-03-13T19:12:22.389Z,9.62
2023-03-13T19:15:08.703Z,9.59
2023-03-13T19:17:56.325Z,9.53
2023-03-13T19:20:42.217Z,9.39
2023-03-13T19:23:28.424Z,9.38
2023-03-13T19:26:28.525Z,9.25
2023-03-13T19:29:16.909Z,9.20
2023-03-13T19:32:07.701Z,9.18
2023-03-13T19:34:53.771Z,9.13
2023-03-13T19:37:40.512Z,9.05
2023-03-13T19:40:28.779Z,9.05
2023-03-13T19:43:15.635Z,8.96
2023-03-13T19:46:01.655Z,8.95
2023-03-13T19:48:47.681Z,8.90
2023-03-13T19:51:33.647Z,8.82
2023-03-13T19:54:19.594Z,8.76
2023-03-13T19:57:05.753Z,8.69
2023-03-13T19:59:51.664Z,8.64
2023-03-13T20:02:37.458Z,8.53
2023-03-13T20:05:27.197Z,8.52
2023-03-13T20:08:12.923Z,8.49
2023-03-13T20:11:03.779Z,8.49
2023-03-13T20:13:49.826Z,8.46
2023-03-13T20:16:40.541Z,8.40
2023-03-13T20:19:29.250Z,8.40
2023-03-13T20:22:16.346Z,8.30
2023-03-13T20:25:02.065Z,8.26
2023-03-13T20:27:47.944Z,8.17
2023-03-13T20:30:33.850Z,8.13
2023-03-13T20:33:19.965Z,8.04
2023-03-13T20:36:11.745Z,7.97
2023-03-13T20:38:57.566Z,7.90
2023-03-13T20:41:45.143Z,7.90
2023-03-13T20:44:30.960Z,7.82
2023-03-13T20:47:17.358Z,7.79
2023-03-13T20:50:03.555Z,7.68
2023-03-13T20:52:49.639Z,7.63
2023-03-13T20:55:39.585Z,7.54
2023-03-13T20:58:25.199Z,7.54
2023-03-13T21:01:22.229Z,7.44
2023-03-13T21:04:08.323Z,7.39
2023-03-13T21:06:54.246Z,7.36
2023-03-13T21:09:43.414Z,7.30
2023-03-13T21:12:29.280Z,7.31
2023-03-13T21:15:16.742Z,7.27
2023-03-13T21:18:03.220Z,7.23
2023-03-13T21:20:51.024Z,7.15
2023-03-13T21:23:38.168Z,7.14
2023-03-13T21:26:25.053Z,7.14
2023-03-13T21:29:11.198Z,7.11
2023-03-13T21:31:57.148Z,6.97
2023-03-13T21:34:45.541Z,6.96
2023-03-13T21:37:32.292Z,6.92
2023-03-13T21:40:18.662Z,6.86
2023-03-13T21:43:04.562Z,6.69
2023-03-13T21:45:50.178Z,6.65
2023-03-13T21:48:38.162Z,6.65
2023-03-13T21:51:24.131Z,6.64
2023-03-13T21:54:12.015Z,6.61
2023-03-13T21:56:57.892Z,6.66
2023-03-13T21:59:43.563Z,6.58
2023-03-13T22:02:41.092Z,6.60
2023-03-13T22:05:27.076Z,6.58
2023-03-13T22:08:15.879Z,6.52
2023-03-13T22:11:01.596Z,6.49
2023-03-13T22:13:54.448Z,6.46
2023-03-13T22:16:40.765Z,6.44
2023-03-13T22:19:29.573Z,6.42
2023-03-13T22:22:16.828Z,6.41
2023-03-13T22:25:04.565Z,6.39
2023-03-13T22:27:50.526Z,6.33
2023-03-13T22:30:39.324Z,6.33
2023-03-13T22:33:24.898Z,6.28
2023-03-13T22:36:10.818Z,6.17
2023-03-13T22:38:58.516Z,6.02
2023-03-13T22:41:44.379Z,5.92
2023-03-13T22:44:32.894Z,5.92
2023-03-13T22:47:18.777Z,5.88
2023-03-13T22:50:11.135Z,5.80
2023-03-13T22:52:57.143Z,5.80
2023-03-13T22:55:47.702Z,5.77
2023-03-13T22:58:34.362Z,5.75
2023-03-13T23:01:22.900Z,5.78
2023-03-13T23:04:08.952Z,5.78
2023-03-13T23:06:56.905Z,5.73
2023-03-13T23:09:42.870Z,5.71
2023-03-13T23:12:30.954Z,5.65
2023-03-13T23:15:54.666Z,5.58
2023-03-13T23:18:42.732Z,5.53
2023-03-13T23:21:28.462Z,5.53
2023-03-13T23:24:15.224Z,5.48
2023-03-13T23:27:01.079Z,5.43
2023-03-13T23:29:49.041Z,5.41
2023-03-13T23:32:39.884Z,5.36
2023-03-13T23:35:25.917Z,5.29
2023-03-13T23:38:12.777Z,5.24
2023-03-13T23:40:58.606Z,5.18
2023-03-13T23:43:44.252Z,5.10
2023-03-13T23:46:33.584Z,5.00
2023-03-13T23:49:19.540Z,4.98
2023-03-13T23:52:05.531Z,4.97
2023-03-13T23:54:52.492Z,4.93
2023-03-13T23:57:38.594Z,4.93
